Time;durP1;ratioP1;P1;durP2;ratioP2;P2;SDS_P1;SDS_P2;PMS_P1;PMS_P2;Temp;Humidity;BMP_temperature;BMP_pressure;BME280_temperature;BME280_humidity;BME280_pressure;Samples;Min_cycle;Max_cycle;Signal;HPM_P1;HPM_P2
2023/03/28 00:00:47;;;;;;;0.60;0.40;;;;;;;;;;4974283;28;20450;-65
2023/03/28 00:03:17;;;;;;;0.60;0.40;;;;;;;;;;4974207;28;20960;-66
2023/03/28 00:05:47;;;;;;;0.60;0.40;;;;;;;;;;4975068;28;20446;-66
2023/03/28 00:08:15;;;;;;;2.23;2.10;;;;;;;;;;4974159;28;20446;-66
2023/03/28 00:10:43;;;;;;;0.60;0.40;;;;;;;;;;4974223;28;20459;-67
2023/03/28 00:13:12;;;;;;;0.60;0.40;;;;;;;;;;4973176;28;20514;-66
2023/03/28 00:15:40;;;;;;;0.60;0.40;;;;;;;;;;4973764;28;20446;-66
2023/03/28 00:18:10;;;;;;;1.23;0.83;;;;;;;;;;4973006;28;20524;-66
2023/03/28 00:20:37;;;;;;;0.60;0.40;;;;;;;;;;4973776;28;20446;-66
2023/03/28 00:23:05;;;;;;;0.60;0.40;;;;;;;;;;4973377;28;20843;-66
2023/03/28 00:25:34;;;;;;;0.60;0.40;;;;;;;;;;4973179;28;20452;-67
2023/03/28 00:28:02;;;;;;;0.60;0.40;;;;;;;;;;4972973;28;20449;-66
2023/03/28 00:30:29;;;;;;;2.20;0.80;;;;;;;;;;4973234;28;20457;-66
2023/03/28 00:32:57;;;;;;;0.70;0.60;;;;;;;;;;4973404;28;20481;-66
2023/03/28 00:35:24;;;;;;;1.80;1.70;;;;;;;;;;4972735;28;20450;-66
2023/03/28 00:37:56;;;;;;;0.60;0.40;;;;;;;;;;4973526;28;20450;-65
2023/03/28 00:40:24;;;;;;;0.60;0.40;;;;;;;;;;4972950;28;20459;-67
2023/03/28 00:42:51;;;;;;;0.60;0.40;;;;;;;;;;4972947;28;20579;-66
2023/03/28 00:45:22;;;;;;;0.60;0.40;;;;;;;;;;4972280;28;20453;-66
2023/03/28 00:47:51;;;;;;;0.60;0.40;;;;;;;;;;4973477;28;20449;-66
2023/03/28 00:50:19;;;;;;;0.60;0.40;;;;;;;;;;4972374;28;20933;-66
2023/03/28 00:52:49;;;;;;;0.70;0.50;;;;;;;;;;4972936;28;20477;-66
2023/03/28 00:55:18;;;;;;;0.70;0.60;;;;;;;;;;4972225;28;20995;-65
2023/03/28 00:57:46;;;;;;;0.60;0.40;;;;;;;;;;4973000;28;20458;-65
2023/03/28 01:00:15;;;;;;;0.60;0.40;;;;;;;;;;4972286;28;20453;-66
2023/03/28 01:02:49;;;;;;;0.60;0.40;;;;;;;;;;4972983;28;20448;-66
2023/03/28 01:05:17;;;;;;;0.73;0.60;;;;;;;;;;4972151;28;20529;-66
2023/03/28 01:07:46;;;;;;;0.60;0.40;;;;;;;;;;4973140;28;20445;-67
2023/03/28 01:10:14;;;;;;;0.77;0.73;;;;;;;;;;4972266;28;20457;-67
2023/03/28 01:12:41;;;;;;;0.60;0.40;;;;;;;;;;4972899;28;20466;-66
2023/03/28 01:15:09;;;;;;;0.60;0.40;;;;;;;;;;4972083;28;20444;-67
2023/03/28 01:17:36;;;;;;;0.60;0.40;;;;;;;;;;4972769;28;20811;-66
2023/03/28 01:20:12;;;;;;;0.60;0.50;;;;;;;;;;4972261;28;20455;-66
2023/03/28 01:22:54;;;;;;;0.60;0.40;;;;;;;;;;4972363;28;20447;-66
2023/03/28 01:25:42;;;;;;;0.60;0.40;;;;;;;;;;4972060;28;20448;-67
2023/03/28 01:28:18;;;;;;;0.60;0.40;;;;;;;;;;4971840;28;20932;-66
2023/03/28 01:30:56;;;;;;;0.70;0.60;;;;;;;;;;4972466;28;20433;-67
2023/03/28 01:33:42;;;;;;;0.60;0.40;;;;;;;;;;4972081;28;20839;-66
2023/03/28 01:36:23;;;;;;;0.60;0.40;;;;;;;;;;4971981;28;20796;-66
2023/03/28 01:38:55;;;;;;;0.60;0.40;;;;;;;;;;4972141;28;20789;-66
2023/03/28 01:41:26;;;;;;;0.60;0.40;;;;;;;;;;4971812;28;20448;-67
2023/03/28 01:43:58;;;;;;;0.60;0.40;;;;;;;;;;4972145;28;20488;-66
2023/03/28 01:46:29;;;;;;;0.60;0.40;;;;;;;;;;4971737;28;20781;-67
2023/03/28 01:49:00;;;;;;;0.60;0.40;;;;;;;;;;4972332;28;20533;-66
2023/03/28 01:51:32;;;;;;;0.60;0.40;;;;;;;;;;4972371;28;20459;-66
2023/03/28 01:54:04;;;;;;;1.00;0.90;;;;;;;;;;4972021;28;20484;-65
2023/03/28 01:56:36;;;;;;;1.10;0.73;;;;;;;;;;4972595;28;20457;-66
2023/03/28 01:59:07;;;;;;;0.60;0.40;;;;;;;;;;4971781;28;20447;-66
2023/03/28 02:01:37;;;;;;;0.60;0.50;;;;;;;;;;4972065;28;20437;-66
2023/03/28 02:04:07;;;;;;;0.60;0.40;;;;;;;;;;4971940;28;20897;-66
2023/03/28 02:06:37;;;;;;;1.37;1.27;;;;;;;;;;4971906;28;20448;-67
2023/03/28 02:09:06;;;;;;;0.60;0.40;;;;;;;;;;4971801;28;20912;-67
2023/03/28 02:11:34;;;;;;;0.60;0.50;;;;;;;;;;4972234;28;20728;-66
2023/03/28 02:14:03;;;;;;;0.60;0.40;;;;;;;;;;4971992;28;20598;-66
2023/03/28 02:16:35;;;;;;;0.60;0.40;;;;;;;;;;4972744;28;20449;-67
2023/03/28 02:19:03;;;;;;;0.60;0.40;;;;;;;;;;4973023;28;20472;-66
2023/03/28 02:21:34;;;;;;;0.60;0.40;;;;;;;;;;4972581;28;20967;-66
2023/03/28 02:24:01;;;;;;;0.60;0.40;;;;;;;;;;4972663;28;20434;-67
2023/03/28 02:26:30;;;;;;;0.70;0.50;;;;;;;;;;4972026;28;20928;-67
2023/03/28 02:28:58;;;;;;;0.60;0.40;;;;;;;;;;4971686;28;20926;-67
2023/03/28 02:31:25;;;;;;;0.60;0.40;;;;;;;;;;4971220;28;20444;-66
2023/03/28 02:33:53;;;;;;;0.60;0.43;;;;;;;;;;4972177;28;20515;-66
2023/03/28 02:36:30;;;;;;;0.60;0.40;;;;;;;;;;4971550;28;20448;-66
2023/03/28 02:39:02;;;;;;;0.60;0.40;;;;;;;;;;4972218;28;20453;-67
2023/03/28 02:41:35;;;;;;;0.60;0.50;;;;;;;;;;4971978;28;20463;-66
2023/03/28 02:44:13;;;;;;;0.60;0.40;;;;;;;;;;4972007;28;20503;-66
2023/03/28 02:46:43;;;;;;;0.60;0.40;;;;;;;;;;4972174;28;20703;-66
2023/03/28 02:49:29;;;;;;;0.67;0.40;;;;;;;;;;4971586;28;20452;-66
2023/03/28 02:52:00;;;;;;;0.60;0.40;;;;;;;;;;4975460;28;20457;-66
2023/03/28 02:54:32;;;;;;;0.70;0.40;;;;;;;;;;4974952;28;20510;-66
2023/03/28 02:57:04;;;;;;;0.60;0.40;;;;;;;;;;4975411;28;20451;-66
2023/03/28 02:59:33;;;;;;;0.60;0.40;;;;;;;;;;4975109;28;20944;-66
2023/03/28 03:02:00;;;;;;;0.60;0.40;;;;;;;;;;4975214;28;20447;-66
2023/03/28 03:04:27;;;;;;;0.70;0.47;;;;;;;;;;4974488;28;20443;-66
2023/03/28 03:06:54;;;;;;;0.60;0.40;;;;;;;;;;4975220;28;20458;-67
2023/03/28 03:09:22;;;;;;;0.60;0.40;;;;;;;;;;4974540;28;20822;-67
2023/03/28 03:11:49;;;;;;;0.60;0.40;;;;;;;;;;4974989;28;20449;-66
2023/03/28 03:14:18;;;;;;;0.60;0.40;;;;;;;;;;4973871;28;20513;-67
2023/03/28 03:16:45;;;;;;;0.80;0.80;;;;;;;;;;4974916;28;20466;-66
2023/03/28 03:19:12;;;;;;;0.60;0.40;;;;;;;;;;4974196;28;20447;-67
2023/03/28 03:21:40;;;;;;;0.70;0.50;;;;;;;;;;4974699;28;20954;-67
2023/03/28 03:24:08;;;;;;;0.60;0.40;;;;;;;;;;4974146;28;20949;-66
2023/03/28 03:26:35;;;;;;;0.60;0.40;;;;;;;;;;4974602;28;20451;-67
2023/03/28 03:29:02;;;;;;;1.57;1.17;;;;;;;;;;4974616;28;20446;-67
2023/03/28 03:31:31;;;;;;;0.60;0.40;;;;;;;;;;4974715;28;20810;-66
2023/03/28 03:34:00;;;;;;;0.60;0.40;;;;;;;;;;4974637;28;20486;-66
2023/03/28 03:36:29;;;;;;;1.87;1.77;;;;;;;;;;4974126;28;20529;-66
2023/03/28 03:38:56;;;;;;;0.60;0.40;;;;;;;;;;4974683;28;20460;-66
2023/03/28 03:41:23;;;;;;;0.60;0.40;;;;;;;;;;4973859;28;20534;-67
2023/03/28 03:43:50;;;;;;;0.60;0.40;;;;;;;;;;4973920;28;20490;-66
2023/03/28 03:46:17;;;;;;;1.13;1.03;;;;;;;;;;4973644;28;20451;-67
2023/03/28 03:48:46;;;;;;;0.60;0.40;;;;;;;;;;4974640;28;20451;-66
2023/03/28 03:51:13;;;;;;;0.60;0.40;;;;;;;;;;4974040;28;20451;-67
2023/03/28 03:53:40;;;;;;;0.60;0.40;;;;;;;;;;4974267;28;20513;-66
2023/03/28 03:56:08;;;;;;;0.60;0.40;;;;;;;;;;4973659;28;20956;-67
2023/03/28 03:58:35;;;;;;;0.60;0.40;;;;;;;;;;4974150;28;20447;-67
2023/03/28 04:01:02;;;;;;;0.60;0.40;;;;;;;;;;4973718;28;20461;-67
2023/03/28 04:03:29;;;;;;;0.63;0.43;;;;;;;;;;4974330;28;20448;-67
2023/03/28 04:05:58;;;;;;;0.60;0.40;;;;;;;;;;4974100;28;20454;-66
2023/03/28 04:08:25;;;;;;;0.90;0.70;;;;;;;;;;4973497;28;20461;-67
2023/03/28 04:10:52;;;;;;;0.60;0.40;;;;;;;;;;4973998;28;20452;-66
2023/03/28 04:13:19;;;;;;;0.60;0.40;;;;;;;;;;4973289;28;20471;-66
2023/03/28 04:15:47;;;;;;;0.60;0.40;;;;;;;;;;4973846;28;20537;-66
2023/03/28 04:18:16;;;;;;;0.60;0.40;;;;;;;;;;4973196;28;20932;-67
2023/03/28 04:20:45;;;;;;;0.60;0.40;;;;;;;;;;4973923;28;20532;-67
2023/03/28 04:23:17;;;;;;;0.70;0.67;;;;;;;;;;4973261;28;20449;-66
2023/03/28 04:25:44;;;;;;;0.60;0.40;;;;;;;;;;4973671;28;20444;-66
2023/03/28 04:28:11;;;;;;;0.60;0.40;;;;;;;;;;4973384;28;20442;-66
2023/03/28 04:30:38;;;;;;;0.60;0.40;;;;;;;;;;4973768;28;20505;-67
2023/03/28 04:33:06;;;;;;;0.60;0.40;;;;;;;;;;4973712;28;20456;-66
2023/03/28 04:35:34;;;;;;;0.60;0.40;;;;;;;;;;4973585;28;20581;-67
2023/03/28 04:38:02;;;;;;;0.60;0.40;;;;;;;;;;4973692;28;20537;-66
2023/03/28 04:40:30;;;;;;;0.60;0.40;;;;;;;;;;4973159;28;20448;-66
2023/03/28 04:42:58;;;;;;;0.60;0.40;;;;;;;;;;4972893;28;20496;-66
2023/03/28 04:45:25;;;;;;;0.60;0.40;;;;;;;;;;4972697;28;20797;-66
2023/03/28 04:47:52;;;;;;;0.60;0.40;;;;;;;;;;4973236;28;20456;-67
2023/03/28 04:50:19;;;;;;;0.60;0.40;;;;;;;;;;4972496;28;20444;-66
2023/03/28 04:52:46;;;;;;;0.60;0.40;;;;;;;;;;4973076;28;20465;-66
2023/03/28 04:55:14;;;;;;;0.60;0.40;;;;;;;;;;4972549;28;20489;-66
2023/03/28 04:57:43;;;;;;;0.60;0.40;;;;;;;;;;4973298;28;20450;-66
2023/03/28 05:00:13;;;;;;;0.70;0.50;;;;;;;;;;4972397;28;20467;-66
2023/03/28 05:02:40;;;;;;;1.93;0.90;;;;;;;;;;4972905;28;20998;-66
2023/03/28 05:05:07;;;;;;;0.60;0.40;;;;;;;;;;4972245;28;20456;-67
2023/03/28 05:07:35;;;;;;;0.60;0.40;;;;;;;;;;4972854;28;20936;-66
2023/03/28 05:10:03;;;;;;;0.60;0.40;;;;;;;;;;4973072;28;20485;-65
2023/03/28 05:12:30;;;;;;;0.60;0.40;;;;;;;;;;4972280;28;20459;-66
2023/03/28 05:14:58;;;;;;;0.60;0.40;;;;;;;;;;4972302;28;21074;-66
2023/03/28 05:17:25;;;;;;;0.80;0.73;;;;;;;;;;4972402;28;20455;-65
2023/03/28 05:19:52;;;;;;;0.60;0.40;;;;;;;;;;4972716;28;20464;-66
2023/03/28 05:22:20;;;;;;;0.60;0.40;;;;;;;;;;4971845;28;20452;-66
2023/03/28 05:24:47;;;;;;;0.60;0.40;;;;;;;;;;4972928;28;20458;-67
2023/03/28 05:27:16;;;;;;;1.60;1.50;;;;;;;;;;4972329;28;20807;-66
2023/03/28 05:29:43;;;;;;;0.60;0.40;;;;;;;;;;4972334;28;20458;-65
2023/03/28 05:32:12;;;;;;;0.60;0.40;;;;;;;;;;4972040;28;20451;-65
2023/03/28 05:34:40;;;;;;;0.60;0.40;;;;;;;;;;4972489;28;20535;-65
2023/03/28 05:37:07;;;;;;;0.60;0.40;;;;;;;;;;4971931;28;20455;-65
2023/03/28 05:39:34;;;;;;;0.60;0.40;;;;;;;;;;4972769;28;20447;-65
2023/03/28 05:42:01;;;;;;;0.60;0.43;;;;;;;;;;4972437;28;20539;-65
2023/03/28 05:44:28;;;;;;;0.60;0.40;;;;;;;;;;4971401;28;20480;-65
2023/03/28 05:46:55;;;;;;;0.60;0.40;;;;;;;;;;4972584;28;20452;-65
2023/03/28 05:49:24;;;;;;;0.60;0.40;;;;;;;;;;4972031;28;20455;-67
2023/03/28 05:51:51;;;;;;;0.60;0.40;;;;;;;;;;4972284;28;20512;-67
2023/03/28 05:54:18;;;;;;;0.60;0.40;;;;;;;;;;4971623;28;20510;-66
2023/03/28 05:56:45;;;;;;;0.60;0.40;;;;;;;;;;4973218;28;20455;-66
2023/03/28 05:59:12;;;;;;;0.60;0.40;;;;;;;;;;4971625;28;20455;-67
2023/03/28 06:01:39;;;;;;;0.60;0.40;;;;;;;;;;4971969;28;20452;-66
2023/03/28 06:04:07;;;;;;;0.70;0.60;;;;;;;;;;4971614;28;20822;-67
2023/03/28 06:06:36;;;;;;;0.60;0.40;;;;;;;;;;4972366;28;20454;-67
2023/03/28 06:09:03;;;;;;;0.60;0.40;;;;;;;;;;4972378;28;20485;-66
2023/03/28 06:11:30;;;;;;;0.80;0.67;;;;;;;;;;4972204;28;20846;-66
2023/03/28 06:13:58;;;;;;;0.60;0.40;;;;;;;;;;4972618;28;20460;-65
2023/03/28 06:16:25;;;;;;;0.60;0.40;;;;;;;;;;4971172;28;21167;-66
2023/03/28 06:18:53;;;;;;;0.60;0.40;;;;;;;;;;4971994;28;20538;-66
2023/03/28 06:21:20;;;;;;;0.60;0.40;;;;;;;;;;4971631;28;20443;-66
2023/03/28 06:23:49;;;;;;;0.60;0.40;;;;;;;;;;4973526;28;20450;-67
2023/03/28 06:26:16;;;;;;;1.33;0.77;;;;;;;;;;4975227;28;20463;-66
2023/03/28 06:28:43;;;;;;;0.60;0.40;;;;;;;;;;4975871;28;20453;-66
2023/03/28 06:31:11;;;;;;;0.60;0.40;;;;;;;;;;4974992;28;20943;-65
2023/03/28 06:33:39;;;;;;;0.60;0.40;;;;;;;;;;4975675;28;20449;-65
2023/03/28 06:36:07;;;;;;;0.60;0.43;;;;;;;;;;4975148;28;20480;-66
2023/03/28 06:38:34;;;;;;;0.60;0.40;;;;;;;;;;4975929;28;20487;-65
2023/03/28 06:41:02;;;;;;;0.60;0.40;;;;;;;;;;4975752;28;20488;-65
2023/03/28 06:43:30;;;;;;;0.60;0.40;;;;;;;;;;4974771;28;20680;-65
2023/03/28 06:45:57;;;;;;;0.60;0.40;;;;;;;;;;4975474;28;20475;-66
2023/03/28 06:48:29;;;;;;;1.83;0.80;;;;;;;;;;4975140;28;20445;-65
2023/03/28 06:50:56;;;;;;;0.60;0.40;;;;;;;;;;4975361;28;20543;-65
2023/03/28 06:53:24;;;;;;;0.70;0.50;;;;;;;;;;4975190;28;20457;-66
2023/03/28 06:55:51;;;;;;;0.60;0.40;;;;;;;;;;4975452;28;20481;-65
2023/03/28 06:58:19;;;;;;;5.10;1.07;;;;;;;;;;4974912;28;20450;-66
2023/03/28 07:00:47;;;;;;;0.60;0.40;;;;;;;;;;4975391;28;20458;-65
2023/03/28 07:03:14;;;;;;;0.60;0.40;;;;;;;;;;4974604;28;20446;-66
2023/03/28 07:05:43;;;;;;;1.00;1.00;;;;;;;;;;4975413;28;20449;-66
2023/03/28 07:08:10;;;;;;;0.60;0.40;;;;;;;;;;4974479;28;20454;-66
2023/03/28 07:10:38;;;;;;;0.60;0.47;;;;;;;;;;4974897;28;20814;-66
2023/03/28 07:13:06;;;;;;;0.60;0.40;;;;;;;;;;4974921;28;20475;-66
2023/03/28 07:15:34;;;;;;;0.60;0.40;;;;;;;;;;4974993;28;20488;-65
2023/03/28 07:18:01;;;;;;;0.60;0.40;;;;;;;;;;4975197;28;20446;-65
2023/03/28 07:20:29;;;;;;;0.60;0.40;;;;;;;;;;4974298;28;20449;-66
2023/03/28 07:22:56;;;;;;;0.60;0.40;;;;;;;;;;4975066;28;20799;-66
2023/03/28 07:25:23;;;;;;;0.60;0.40;;;;;;;;;;4974216;28;20448;-65
2023/03/28 07:27:51;;;;;;;0.60;0.40;;;;;;;;;;4974874;28;20926;-66
2023/03/28 07:30:18;;;;;;;0.60;0.40;;;;;;;;;;4973780;28;20457;-66
2023/03/28 07:32:46;;;;;;;0.60;0.50;;;;;;;;;;4974924;28;20446;-65
2023/03/28 07:35:13;;;;;;;0.60;0.40;;;;;;;;;;4973614;28;20496;-66
2023/03/28 07:37:40;;;;;;;0.60;0.40;;;;;;;;;;4974360;28;20454;-66
2023/03/28 07:40:09;;;;;;;0.60;0.40;;;;;;;;;;4974065;28;20452;-66
2023/03/28 07:42:36;;;;;;;0.60;0.40;;;;;;;;;;4974267;28;20485;-65
2023/03/28 07:45:04;;;;;;;0.60;0.40;;;;;;;;;;4972961;28;20457;-66
2023/03/28 07:47:31;;;;;;;0.60;0.40;;;;;;;;;;4973362;28;20522;-66
2023/03/28 07:50:00;;;;;;;0.60;0.40;;;;;;;;;;4974385;28;20442;-66
2023/03/28 07:52:27;;;;;;;0.60;0.40;;;;;;;;;;4972865;28;20544;-65
2023/03/28 07:54:55;;;;;;;0.60;0.50;;;;;;;;;;4974168;28;20815;-66
2023/03/28 07:57:22;;;;;;;0.60;0.40;;;;;;;;;;4973809;28;20453;-66
2023/03/28 07:59:49;;;;;;;0.60;0.40;;;;;;;;;;4974261;28;20450;-65
2023/03/28 08:02:16;;;;;;;0.60;0.40;;;;;;;;;;4973391;28;20504;-65
2023/03/28 08:04:44;;;;;;;0.60;0.40;;;;;;;;;;4973940;28;20446;-66
2023/03/28 08:07:14;;;;;;;0.60;0.40;;;;;;;;;;4973381;28;20451;-65
2023/03/28 08:09:41;;;;;;;0.60;0.40;;;;;;;;;;4973948;28;20459;-66
2023/03/28 08:12:08;;;;;;;0.60;0.50;;;;;;;;;;4973380;28;20456;-66
2023/03/28 08:14:35;;;;;;;0.60;0.40;;;;;;;;;;4974061;28;20438;-66
2023/03/28 08:17:02;;;;;;;0.70;0.57;;;;;;;;;;4973708;28;20460;-65
2023/03/28 08:19:29;;;;;;;0.60;0.40;;;;;;;;;;4973170;28;20921;-65
2023/03/28 08:22:01;;;;;;;1.00;0.67;;;;;;;;;;4973764;28;20547;-66
2023/03/28 08:24:30;;;;;;;0.60;0.40;;;;;;;;;;4973276;28;20446;-65
2023/03/28 08:26:57;;;;;;;0.60;0.40;;;;;;;;;;4973518;28;20453;-66
2023/03/28 08:29:24;;;;;;;0.67;0.57;;;;;;;;;;4973099;28;20447;-66
2023/03/28 08:31:51;;;;;;;0.60;0.40;;;;;;;;;;4973565;28;20530;-66
2023/03/28 08:34:19;;;;;;;0.60;0.40;;;;;;;;;;4972771;28;20955;-66
2023/03/28 08:36:47;;;;;;;0.60;0.40;;;;;;;;;;4973681;28;20493;-65
2023/03/28 08:39:14;;;;;;;0.60;0.40;;;;;;;;;;4973035;28;20457;-66
2023/03/28 08:42:00;;;;;;;0.60;0.50;;;;;;;;;;4973392;28;20965;-66
2023/03/28 08:44:35;;;;;;;0.60;0.40;;;;;;;;;;4967797;28;20490;-67
2023/03/28 08:47:04;;;;;;;0.60;0.40;;;;;;;;;;4969604;28;20438;-67
2023/03/28 08:49:34;;;;;;;0.60;0.40;;;;;;;;;;4967385;28;20464;-67
2023/03/28 08:52:04;;;;;;;0.60;0.40;;;;;;;;;;4962294;28;20786;-67
2023/03/28 08:54:33;;;;;;;0.60;0.40;;;;;;;;;;4967649;28;20477;-67
2023/03/28 08:57:03;;;;;;;0.60;0.40;;;;;;;;;;4969194;28;20468;-66
2023/03/28 08:59:36;;;;;;;0.60;0.40;;;;;;;;;;4957701;28;20457;-67
2023/03/28 09:02:03;;;;;;;0.70;0.50;;;;;;;;;;4957156;28;20456;-67
2023/03/28 09:04:33;;;;;;;0.60;0.40;;;;;;;;;;4960658;28;20450;-66
2023/03/28 09:07:04;;;;;;;0.60;0.50;;;;;;;;;;4961039;28;20454;-67
2023/03/28 09:09:40;;;;;;;0.60;0.40;;;;;;;;;;4965524;28;20856;-67
2023/03/28 09:12:17;;;;;;;1.27;0.80;;;;;;;;;;4956944;28;20464;-66
2023/03/28 09:14:50;;;;;;;0.60;0.50;;;;;;;;;;4973132;28;20510;-66
2023/03/28 09:17:19;;;;;;;0.50;0.40;;;;;;;;;;4964118;28;20497;-67
2023/03/28 09:19:55;;;;;;;0.60;0.40;;;;;;;;;;4963811;28;20612;-67
2023/03/28 09:22:30;;;;;;;0.50;0.40;;;;;;;;;;4959803;28;20454;-67
2023/03/28 09:25:04;;;;;;;1.00;0.90;;;;;;;;;;4955446;28;20800;-67
2023/03/28 09:27:34;;;;;;;0.60;0.40;;;;;;;;;;4971993;28;20925;-68
2023/03/28 09:30:07;;;;;;;0.60;0.40;;;;;;;;;;4970381;28;20446;-68
2023/03/28 09:32:36;;;;;;;0.67;0.67;;;;;;;;;;4972161;28;20941;-68
2023/03/28 09:35:03;;;;;;;1.00;0.70;;;;;;;;;;4969456;28;20945;-67
2023/03/28 09:37:32;;;;;;;0.60;0.40;;;;;;;;;;4966857;28;20485;-68
2023/03/28 09:40:07;;;;;;;0.50;0.40;;;;;;;;;;4970862;28;20457;-66
2023/03/28 09:42:37;;;;;;;0.50;0.40;;;;;;;;;;4971154;28;20492;-66
2023/03/28 09:45:07;;;;;;;0.60;0.40;;;;;;;;;;4971708;28;20446;-66
2023/03/28 09:47:35;;;;;;;0.70;0.60;;;;;;;;;;4972480;28;20442;-66
2023/03/28 09:50:02;;;;;;;0.50;0.40;;;;;;;;;;4972328;28;20450;-66
2023/03/28 09:52:30;;;;;;;0.60;0.40;;;;;;;;;;4971934;28;20454;-66
2023/03/28 09:54:57;;;;;;;0.50;0.40;;;;;;;;;;4971411;28;20450;-66
2023/03/28 09:57:24;;;;;;;0.53;0.40;;;;;;;;;;4967114;28;20486;-66
2023/03/28 09:59:53;;;;;;;0.60;0.40;;;;;;;;;;4971990;28;20442;-66
2023/03/28 10:02:25;;;;;;;0.57;0.50;;;;;;;;;;4971564;28;20446;-67
2023/03/28 10:04:52;;;;;;;0.60;0.40;;;;;;;;;;4972479;28;20434;-67
2023/03/28 10:07:29;;;;;;;0.70;0.70;;;;;;;;;;4971566;28;20810;-67
2023/03/28 10:09:59;;;;;;;0.50;0.40;;;;;;;;;;4988250;28;20448;-66
2023/03/28 10:12:32;;;;;;;0.60;0.40;;;;;;;;;;4985042;28;20560;-66
2023/03/28 10:15:00;;;;;;;1.07;0.97;;;;;;;;;;4971730;28;20469;-66
2023/03/28 10:17:28;;;;;;;5.07;0.83;;;;;;;;;;4971588;28;20485;-65
2023/03/28 10:19:59;;;;;;;0.60;0.40;;;;;;;;;;4970681;28;20450;-65
2023/03/28 10:22:28;;;;;;;0.60;0.60;;;;;;;;;;4988027;28;20485;-65
2023/03/28 10:24:55;;;;;;;0.60;0.40;;;;;;;;;;4988240;28;20473;-65
2023/03/28 10:27:24;;;;;;;0.50;0.40;;;;;;;;;;4990799;28;20955;-65
2023/03/28 10:29:52;;;;;;;0.50;0.40;;;;;;;;;;4977514;28;20454;-65
2023/03/28 10:32:26;;;;;;;1.03;1.00;;;;;;;;;;4958851;28;20458;-67
2023/03/28 10:35:01;;;;;;;0.50;0.40;;;;;;;;;;4971955;28;20430;-67
2023/03/28 10:37:29;;;;;;;0.50;0.40;;;;;;;;;;4971131;28;21002;-66
2023/03/28 10:40:00;;;;;;;0.50;0.40;;;;;;;;;;4964324;28;20466;-65
2023/03/28 10:42:27;;;;;;;0.50;0.40;;;;;;;;;;4964346;28;20509;-69
2023/03/28 10:45:00;;;;;;;0.50;0.50;;;;;;;;;;4967341;28;20442;-67
2023/03/28 10:47:30;;;;;;;0.50;0.40;;;;;;;;;;4964727;28;20950;-67
2023/03/28 10:49:57;;;;;;;0.60;0.50;;;;;;;;;;4960043;28;20442;-67
2023/03/28 10:52:28;;;;;;;0.50;0.50;;;;;;;;;;4964218;28;20457;-72
2023/03/28 10:55:03;;;;;;;0.60;0.50;;;;;;;;;;4952684;28;20793;-68
2023/03/28 10:57:34;;;;;;;0.50;0.40;;;;;;;;;;4957573;28;20489;-68
2023/03/28 11:00:06;;;;;;;0.50;0.40;;;;;;;;;;4971761;28;20469;-68
2023/03/28 11:02:48;;;;;;;0.50;0.43;;;;;;;;;;4971032;28;20467;-68
2023/03/28 11:05:33;;;;;;;0.50;0.40;;;;;;;;;;4969419;28;20926;-67
2023/03/28 11:08:08;;;;;;;0.50;0.40;;;;;;;;;;4960936;28;20906;-68
2023/03/28 11:10:39;;;;;;;0.60;0.60;;;;;;;;;;4990500;28;20452;-68
2023/03/28 11:13:11;;;;;;;0.60;0.50;;;;;;;;;;4979853;28;20442;-67
2023/03/28 11:15:41;;;;;;;0.60;0.50;;;;;;;;;;4974932;28;20438;-67
2023/03/28 11:18:17;;;;;;;0.70;0.50;;;;;;;;;;4974937;28;20446;-66
2023/03/28 11:20:48;;;;;;;0.60;0.50;;;;;;;;;;4972853;28;20461;-67
2023/03/28 11:23:22;;;;;;;0.50;0.40;;;;;;;;;;4971380;28;20513;-67
2023/03/28 11:25:53;;;;;;;0.50;0.40;;;;;;;;;;4988867;28;20468;-67
2023/03/28 11:28:24;;;;;;;0.60;0.50;;;;;;;;;;4993491;28;20523;-66
2023/03/28 11:30:53;;;;;;;0.50;0.40;;;;;;;;;;4976411;28;20575;-70
2023/03/28 11:33:22;;;;;;;0.70;0.70;;;;;;;;;;4973260;28;20454;-67
2023/03/28 11:35:51;;;;;;;0.60;0.60;;;;;;;;;;4973189;28;20987;-67
2023/03/28 11:38:23;;;;;;;0.50;0.40;;;;;;;;;;4971823;28;20822;-68
2023/03/28 11:40:52;;;;;;;0.70;0.70;;;;;;;;;;4980897;28;20459;-68
2023/03/28 11:43:25;;;;;;;0.60;0.50;;;;;;;;;;4978917;28;20831;-69
2023/03/28 11:45:54;;;;;;;0.50;0.40;;;;;;;;;;4974592;28;20449;-68
2023/03/28 11:48:24;;;;;;;0.50;0.40;;;;;;;;;;4974037;28;20450;-68
2023/03/28 11:50:56;;;;;;;0.60;0.50;;;;;;;;;;4974564;28;20435;-68
2023/03/28 11:53:27;;;;;;;1.90;0.70;;;;;;;;;;4973794;28;20969;-68
2023/03/28 11:56:01;;;;;;;0.50;0.40;;;;;;;;;;4974438;28;20440;-68
2023/03/28 11:58:29;;;;;;;0.50;0.40;;;;;;;;;;4972871;28;21024;-68
2023/03/28 12:01:01;;;;;;;0.50;0.40;;;;;;;;;;4973955;28;20454;-68
2023/03/28 12:03:32;;;;;;;0.50;0.40;;;;;;;;;;4973694;28;20529;-67
2023/03/28 12:06:02;;;;;;;0.50;0.40;;;;;;;;;;4974210;28;20430;-68
2023/03/28 12:08:33;;;;;;;0.50;0.40;;;;;;;;;;4972679;28;20450;-68
2023/03/28 12:11:04;;;;;;;3.23;0.50;;;;;;;;;;4964660;28;20466;-66
2023/03/28 12:13:37;;;;;;;0.70;0.50;;;;;;;;;;4970148;28;20510;-70
2023/03/28 12:16:06;;;;;;;0.50;0.40;;;;;;;;;;4969319;28;20541;-70
2023/03/28 12:18:35;;;;;;;0.60;0.50;;;;;;;;;;4968720;28;20532;-72
2023/03/28 12:21:06;;;;;;;0.50;0.50;;;;;;;;;;4969225;28;20466;-72
2023/03/28 12:23:37;;;;;;;0.70;0.70;;;;;;;;;;4969737;28;20819;-67
2023/03/28 12:26:10;;;;;;;0.50;0.40;;;;;;;;;;4965944;28;20444;-69
2023/03/28 12:28:42;;;;;;;0.57;0.43;;;;;;;;;;4966665;28;20480;-67
2023/03/28 12:31:13;;;;;;;2.10;0.93;;;;;;;;;;4962802;28;20462;-67
2023/03/28 12:33:44;;;;;;;0.73;0.57;;;;;;;;;;4970021;28;20524;-68
2023/03/28 12:36:17;;;;;;;0.50;0.40;;;;;;;;;;4971695;28;20454;-68
2023/03/28 12:38:53;;;;;;;0.60;0.60;;;;;;;;;;4972859;28;20451;-68
2023/03/28 12:41:23;;;;;;;0.50;0.40;;;;;;;;;;4965112;28;20454;-67
2023/03/28 12:43:51;;;;;;;0.50;0.40;;;;;;;;;;4969855;28;20548;-68
2023/03/28 12:46:21;;;;;;;0.50;0.40;;;;;;;;;;4969796;28;20465;-67
2023/03/28 12:48:50;;;;;;;0.50;0.40;;;;;;;;;;4972040;28;20524;-67
2023/03/28 12:51:21;;;;;;;0.50;0.50;;;;;;;;;;4971260;28;20485;-67
2023/03/28 12:54:01;;;;;;;0.50;0.40;;;;;;;;;;4966088;28;20817;-68
2023/03/28 12:56:28;;;;;;;0.70;0.50;;;;;;;;;;4971433;28;20489;-68
2023/03/28 12:58:55;;;;;;;1.57;0.90;;;;;;;;;;4972245;28;20462;-67
2023/03/28 13:01:28;;;;;;;0.80;0.80;;;;;;;;;;4971414;28;20454;-68
2023/03/28 13:03:58;;;;;;;0.50;0.40;;;;;;;;;;4973896;28;20889;-67
2023/03/28 13:06:29;;;;;;;0.50;0.40;;;;;;;;;;4971153;28;20469;-67
2023/03/28 13:09:05;;;;;;;0.50;0.40;;;;;;;;;;4971877;28;20461;-67
2023/03/28 13:11:38;;;;;;;0.50;0.40;;;;;;;;;;4971358;28;20484;-67
2023/03/28 13:14:10;;;;;;;0.70;0.70;;;;;;;;;;4971072;28;20456;-68
2023/03/28 13:16:46;;;;;;;0.60;0.50;;;;;;;;;;4967060;28;20493;-68
2023/03/28 13:19:15;;;;;;;1.20;0.60;;;;;;;;;;4967465;28;20546;-68
2023/03/28 13:21:43;;;;;;;0.70;0.70;;;;;;;;;;4961621;28;20451;-68
2023/03/28 13:24:28;;;;;;;0.83;0.60;;;;;;;;;;4967645;28;20541;-68
2023/03/28 13:26:56;;;;;;;0.60;0.50;;;;;;;;;;4969800;28;20964;-68
2023/03/28 13:29:23;;;;;;;0.70;0.70;;;;;;;;;;4968390;28;20485;-67
2023/03/28 13:31:51;;;;;;;0.60;0.50;;;;;;;;;;4970068;28;20445;-68
2023/03/28 13:34:22;;;;;;;0.70;0.60;;;;;;;;;;4965185;28;20933;-67
2023/03/28 13:36:55;;;;;;;0.50;0.40;;;;;;;;;;4970825;28;20485;-68
2023/03/28 13:39:26;;;;;;;0.60;0.40;;;;;;;;;;4969449;28;20478;-68
2023/03/28 13:41:54;;;;;;;0.50;0.40;;;;;;;;;;4970925;28;20450;-68
2023/03/28 13:44:23;;;;;;;1.60;1.03;;;;;;;;;;4970667;28;20544;-68
2023/03/28 13:46:51;;;;;;;0.70;0.70;;;;;;;;;;4962621;28;20464;-68
2023/03/28 13:49:19;;;;;;;0.80;0.50;;;;;;;;;;4969884;28;20458;-68
2023/03/28 13:51:48;;;;;;;0.80;0.80;;;;;;;;;;4971331;28;20450;-68
2023/03/28 13:54:16;;;;;;;0.70;0.53;;;;;;;;;;4970219;28;20454;-71
2023/03/28 13:56:46;;;;;;;0.50;0.50;;;;;;;;;;4969907;28;20859;-68
2023/03/28 13:59:14;;;;;;;0.50;0.40;;;;;;;;;;4966558;28;20855;-68
2023/03/28 14:01:46;;;;;;;0.70;0.50;;;;;;;;;;4971130;28;20825;-72
2023/03/28 14:04:18;;;;;;;0.70;0.67;;;;;;;;;;4970527;28;20446;-68
2023/03/28 14:06:45;;;;;;;0.63;0.63;;;;;;;;;;4971111;28;20458;-71
2023/03/28 14:09:15;;;;;;;0.60;0.50;;;;;;;;;;4970386;28;20481;-69
2023/03/28 14:11:43;;;;;;;0.97;0.53;;;;;;;;;;4971172;28;20509;-70
2023/03/28 14:14:13;;;;;;;0.50;0.40;;;;;;;;;;4963568;28;20556;-71
2023/03/28 14:16:42;;;;;;;0.50;0.40;;;;;;;;;;4970706;28;20904;-70
2023/03/28 14:19:10;;;;;;;0.60;0.40;;;;;;;;;;4971059;28;20825;-69
2023/03/28 14:21:37;;;;;;;0.60;0.50;;;;;;;;;;4971024;28;20543;-68
2023/03/28 14:24:06;;;;;;;0.60;0.50;;;;;;;;;;4969678;28;20913;-68
2023/03/28 14:26:35;;;;;;;0.50;0.40;;;;;;;;;;4970312;28;20450;-68
2023/03/28 14:29:05;;;;;;;0.50;0.40;;;;;;;;;;4970786;28;20454;-68
2023/03/28 14:31:35;;;;;;;0.50;0.40;;;;;;;;;;4968388;28;20933;-68
2023/03/28 14:34:13;;;;;;;0.60;0.50;;;;;;;;;;4970156;28;20553;-69
2023/03/28 14:36:57;;;;;;;0.50;0.40;;;;;;;;;;4967542;28;20456;-69
2023/03/28 14:39:24;;;;;;;0.80;0.80;;;;;;;;;;4970061;28;20446;-69
2023/03/28 14:41:51;;;;;;;0.60;0.50;;;;;;;;;;4969466;28;20525;-70
2023/03/28 14:44:19;;;;;;;0.57;0.50;;;;;;;;;;4968719;28;20489;-72
2023/03/28 14:46:48;;;;;;;0.60;0.50;;;;;;;;;;4972048;28;20981;-72
2023/03/28 14:49:18;;;;;;;0.50;0.50;;;;;;;;;;4966795;28;20461;-69
2023/03/28 14:51:47;;;;;;;0.60;0.50;;;;;;;;;;4970642;28;20446;-69
2023/03/28 14:54:15;;;;;;;1.10;0.67;;;;;;;;;;4973351;28;20877;-70
2023/03/28 14:56:43;;;;;;;0.50;0.40;;;;;;;;;;4974456;28;20478;-69